Time;durP1;ratioP1;P1;durP2;ratioP2;P2;SDS_P1;SDS_P2;PMS_P1;PMS_P2;Temp;Humidity;BMP_temperature;BMP_pressure;BME280_temperature;BME280_humidity;BME280_pressure;Samples;Min_cycle;Max_cycle;Signal;HPM_P1;HPM_P2
2022/11/29 00:00:24;;;;;;;215.65;30.35;;;;;;;;;;5046666;28;20504;-74
2022/11/29 00:02:52;;;;;;;200.13;30.67;;;;;;;;;;5047731;28;20407;-76
2022/11/29 00:05:18;;;;;;;236.98;35.08;;;;;;;;;;5051411;28;20036;-76
2022/11/29 00:07:44;;;;;;;237.43;32.85;;;;;;;;;;5032183;28;20492;-74
2022/11/29 00:10:10;;;;;;;232.38;32.50;;;;;;;;;;5050621;28;20072;-75
2022/11/29 00:12:36;;;;;;;203.38;30.95;;;;;;;;;;5051430;28;20052;-75
2022/11/29 00:15:02;;;;;;;288.35;32.78;;;;;;;;;;5051086;28;20045;-75
2022/11/29 00:17:28;;;;;;;269.58;32.40;;;;;;;;;;5050042;28;20048;-75
2022/11/29 00:19:54;;;;;;;369.17;37.05;;;;;;;;;;5053109;28;20509;-74
2022/11/29 00:22:22;;;;;;;300.35;35.78;;;;;;;;;;5049670;28;20052;-76
2022/11/29 00:24:48;;;;;;;291.67;34.80;;;;;;;;;;5047527;28;20045;-75
2022/11/29 00:27:14;;;;;;;273.80;34.92;;;;;;;;;;5049158;28;20049;-74
2022/11/29 00:29:40;;;;;;;396.23;36.38;;;;;;;;;;5048516;28;20047;-76
2022/11/29 00:32:06;;;;;;;393.17;35.90;;;;;;;;;;5045222;28;20045;-74
2022/11/29 00:34:32;;;;;;;402.85;36.30;;;;;;;;;;5047442;28;20587;-74
2022/11/29 00:36:58;;;;;;;302.30;34.75;;;;;;;;;;5033687;28;20466;-75
2022/11/29 00:39:24;;;;;;;274.10;32.67;;;;;;;;;;5048438;28;20748;-76
2022/11/29 00:41:50;;;;;;;267.23;32.80;;;;;;;;;;5047426;28;20044;-76
2022/11/29 00:44:16;;;;;;;254.40;32.03;;;;;;;;;;5045253;28;20045;-74
2022/11/29 00:46:42;;;;;;;313.45;33.33;;;;;;;;;;5049547;28;20457;-74
2022/11/29 00:49:08;;;;;;;240.88;31.58;;;;;;;;;;5043564;28;20033;-76
2022/11/29 00:51:34;;;;;;;194.10;29.70;;;;;;;;;;5045943;28;20053;-76
2022/11/29 00:54:00;;;;;;;228.63;29.05;;;;;;;;;;5047105;28;20045;-76
2022/11/29 00:56:26;;;;;;;268.15;31.20;;;;;;;;;;5048493;28;20045;-74
2022/11/29 00:58:52;;;;;;;305.35;31.23;;;;;;;;;;5046078;28;20064;-77
2022/11/29 01:01:18;;;;;;;304.80;32.22;;;;;;;;;;5045117;28;20127;-76
2022/11/29 01:03:44;;;;;;;241.10;29.52;;;;;;;;;;5048709;28;20041;-74
2022/11/29 01:06:11;;;;;;;329.27;30.63;;;;;;;;;;5051880;28;20040;-75
2022/11/29 01:08:38;;;;;;;278.52;31.48;;;;;;;;;;5049454;28;20075;-74
2022/11/29 01:11:08;;;;;;;276.63;31.50;;;;;;;;;;5051910;28;20079;-75
2022/11/29 01:13:34;;;;;;;351.02;33.20;;;;;;;;;;5045831;28;20045;-75
2022/11/29 01:16:01;;;;;;;306.75;30.92;;;;;;;;;;5041667;28;20116;-75
2022/11/29 01:18:29;;;;;;;287.98;31.30;;;;;;;;;;5051264;28;20043;-75
2022/11/29 01:21:06;;;;;;;223.90;29.50;;;;;;;;;;5052063;28;20134;-75
2022/11/29 01:23:33;;;;;;;212.45;29.08;;;;;;;;;;5048905;28;20687;-76
2022/11/29 01:26:00;;;;;;;176.48;29.05;;;;;;;;;;5050372;28;20524;-76
2022/11/29 01:28:26;;;;;;;161.20;26.67;;;;;;;;;;5046357;28;20037;-77
2022/11/29 01:30:52;;;;;;;189.73;28.75;;;;;;;;;;5050568;28;20048;-76
2022/11/29 01:33:18;;;;;;;192.75;28.70;;;;;;;;;;5049892;28;20617;-75
2022/11/29 01:35:51;;;;;;;199.93;29.70;;;;;;;;;;5038800;28;20053;-76
2022/11/29 01:38:17;;;;;;;291.55;32.17;;;;;;;;;;5029039;28;20080;-76
2022/11/29 01:40:44;;;;;;;217.23;30.48;;;;;;;;;;5049686;28;20052;-76
2022/11/29 01:43:17;;;;;;;322.27;32.70;;;;;;;;;;5049614;28;20048;-76
2022/11/29 01:45:44;;;;;;;240.45;31.67;;;;;;;;;;5047922;28;20033;-74
2022/11/29 01:48:11;;;;;;;399.25;35.08;;;;;;;;;;5045845;28;20128;-74
2022/11/29 01:50:38;;;;;;;474.27;36.80;;;;;;;;;;5050035;28;20132;-77
2022/11/29 01:53:05;;;;;;;449.05;39.20;;;;;;;;;;5047855;28;20087;-76
2022/11/29 01:55:32;;;;;;;474.75;39.17;;;;;;;;;;5050449;28;20041;-76
2022/11/29 01:57:59;;;;;;;674.60;46.85;;;;;;;;;;5045406;28;20044;-76
2022/11/29 02:00:25;;;;;;;363.15;37.40;;;;;;;;;;5049617;28;20052;-76
2022/11/29 02:02:55;;;;;;;516.92;40.03;;;;;;;;;;5043973;28;20598;-74
2022/11/29 02:05:21;;;;;;;535.70;42.60;;;;;;;;;;5030119;28;20041;-75
2022/11/29 02:07:48;;;;;;;629.47;43.92;;;;;;;;;;5041644;28;20420;-74
2022/11/29 02:10:15;;;;;;;659.50;44.08;;;;;;;;;;5027011;28;20045;-76
2022/11/29 02:12:55;;;;;;;580.85;42.15;;;;;;;;;;5047423;28;20041;-76
2022/11/29 02:15:28;;;;;;;605.40;41.78;;;;;;;;;;5027309;28;20131;-76
2022/11/29 02:17:54;;;;;;;613.33;42.08;;;;;;;;;;5047045;28;20773;-76
2022/11/29 02:20:26;;;;;;;575.95;38.83;;;;;;;;;;5049550;28;20091;-76
2022/11/29 02:23:11;;;;;;;576.38;39.03;;;;;;;;;;5030314;28;20044;-76
2022/11/29 02:25:55;;;;;;;588.65;36.88;;;;;;;;;;5040097;28;20515;-76
2022/11/29 02:28:54;;;;;;;608.35;40.47;;;;;;;;;;5047480;28;20033;-76
2022/11/29 02:31:35;;;;;;;565.53;35.35;;;;;;;;;;5036003;28;20048;-76
2022/11/29 02:34:07;;;;;;;489.00;33.72;;;;;;;;;;5039263;28;20041;-77
2022/11/29 02:36:33;;;;;;;537.45;35.58;;;;;;;;;;5041181;28;20115;-74
2022/11/29 02:39:08;;;;;;;472.58;32.78;;;;;;;;;;5045102;28;20060;-74
2022/11/29 02:41:54;;;;;;;477.25;32.72;;;;;;;;;;5042471;28;20048;-76
2022/11/29 02:44:44;;;;;;;359.73;28.42;;;;;;;;;;5025610;28;20045;-75
2022/11/29 02:47:10;;;;;;;303.38;28.02;;;;;;;;;;5043164;28;20521;-76
2022/11/29 02:49:36;;;;;;;396.88;30.20;;;;;;;;;;5045193;28;20049;-77
2022/11/29 02:52:06;;;;;;;394.40;32.17;;;;;;;;;;5045271;28;20048;-74
2022/11/29 02:54:52;;;;;;;456.33;30.98;;;;;;;;;;5047094;28;20055;-75
2022/11/29 02:57:37;;;;;;;506.45;33.38;;;;;;;;;;5033521;28;20044;-76
2022/11/29 03:00:12;;;;;;;466.63;32.42;;;;;;;;;;5028907;28;20044;-76
2022/11/29 03:02:47;;;;;;;375.42;29.38;;;;;;;;;;5045613;28;20128;-77
2022/11/29 03:05:35;;;;;;;486.73;33.50;;;;;;;;;;5043044;28;20033;-77
2022/11/29 03:08:09;;;;;;;303.23;29.00;;;;;;;;;;5047083;28;20045;-74
2022/11/29 03:10:35;;;;;;;284.48;29.10;;;;;;;;;;5044397;28;20048;-76
2022/11/29 03:13:03;;;;;;;394.63;32.80;;;;;;;;;;5046646;28;20041;-77
2022/11/29 03:15:44;;;;;;;379.25;33.60;;;;;;;;;;5044406;28;20041;-75
2022/11/29 03:18:21;;;;;;;303.70;29.77;;;;;;;;;;5043574;28;20094;-74
2022/11/29 03:20:53;;;;;;;263.75;28.10;;;;;;;;;;5044160;28;20045;-74
2022/11/29 03:23:22;;;;;;;218.65;27.25;;;;;;;;;;5045793;28;20048;-74
2022/11/29 03:25:54;;;;;;;208.05;25.98;;;;;;;;;;5041577;28;20038;-76
2022/11/29 03:28:24;;;;;;;316.60;30.52;;;;;;;;;;5042885;28;20049;-76
2022/11/29 03:30:58;;;;;;;327.30;30.02;;;;;;;;;;5042029;28;20052;-76
2022/11/29 03:33:32;;;;;;;352.17;31.05;;;;;;;;;;5020383;28;20037;-76
2022/11/29 03:36:04;;;;;;;416.20;34.90;;;;;;;;;;5044809;28;20048;-74
2022/11/29 03:38:30;;;;;;;255.15;30.38;;;;;;;;;;5042636;28;20037;-75
2022/11/29 03:41:11;;;;;;;361.33;31.83;;;;;;;;;;5042830;28;20408;-77
2022/11/29 03:43:43;;;;;;;293.88;31.40;;;;;;;;;;5046700;28;20052;-74
2022/11/29 03:46:11;;;;;;;451.73;35.27;;;;;;;;;;5026339;28;20079;-75
2022/11/29 03:48:42;;;;;;;288.00;32.45;;;;;;;;;;5025680;28;20350;-76
2022/11/29 03:51:11;;;;;;;309.70;33.78;;;;;;;;;;5047181;28;20048;-77
2022/11/29 03:53:37;;;;;;;302.70;32.30;;;;;;;;;;5041226;28;20132;-76
2022/11/29 03:56:20;;;;;;;390.40;37.33;;;;;;;;;;5046875;28;20124;-75
2022/11/29 03:58:54;;;;;;;385.13;35.65;;;;;;;;;;5049183;28;20080;-77
2022/11/29 04:01:39;;;;;;;219.02;30.00;;;;;;;;;;5047482;28;20052;-75
2022/11/29 04:04:05;;;;;;;259.50;31.80;;;;;;;;;;5025743;28;20124;-75
2022/11/29 04:06:34;;;;;;;245.10;30.38;;;;;;;;;;5044214;28;20124;-76
2022/11/29 04:09:29;;;;;;;228.07;29.00;;;;;;;;;;5043428;28;20151;-76
2022/11/29 04:12:13;;;;;;;377.48;34.45;;;;;;;;;;4991300;28;20199;-77
2022/11/29 04:14:42;;;;;;;329.52;32.90;;;;;;;;;;5039831;28;20044;-76
2022/11/29 04:17:35;;;;;;;404.10;36.17;;;;;;;;;;5029861;28;20044;-76
2022/11/29 04:20:00;;;;;;;434.93;34.77;;;;;;;;;;5053360;28;20053;-77
2022/11/29 04:22:45;;;;;;;343.13;32.80;;;;;;;;;;5031350;28;20045;-76
2022/11/29 04:25:41;;;;;;;124.00;26.70;;;;;;;;;;5044111;28;20046;-76
2022/11/29 04:28:29;;;;;;;360.05;33.97;;;;;;;;;;5037926;28;20399;-76
2022/11/29 04:31:01;;;;;;;402.55;34.70;;;;;;;;;;5020828;28;20136;-76
2022/11/29 04:33:33;;;;;;;310.10;31.63;;;;;;;;;;5046877;28;20041;-77
2022/11/29 04:36:08;;;;;;;284.35;31.10;;;;;;;;;;5044354;28;20052;-76
2022/11/29 04:38:34;;;;;;;333.65;32.50;;;;;;;;;;5043905;28;20485;-75
2022/11/29 04:41:19;;;;;;;204.70;27.42;;;;;;;;;;5043347;28;20053;-74
2022/11/29 04:44:04;;;;;;;202.13;27.75;;;;;;;;;;5041745;28;20048;-75
2022/11/29 04:46:30;;;;;;;255.73;28.30;;;;;;;;;;5042337;28;21816;-77
2022/11/29 04:49:15;;;;;;;383.02;32.35;;;;;;;;;;5030298;28;20048;-76
2022/11/29 04:51:49;;;;;;;373.10;32.05;;;;;;;;;;5043232;28;20087;-75
2022/11/29 04:54:22;;;;;;;416.00;32.70;;;;;;;;;;5048097;28;20122;-75
2022/11/29 04:56:50;;;;;;;310.52;29.75;;;;;;;;;;5048572;28;20170;-75
2022/11/29 04:59:16;;;;;;;277.80;28.50;;;;;;;;;;5045600;28;20384;-75
2022/11/29 05:02:01;;;;;;;408.90;32.63;;;;;;;;;;5052457;28;20051;-75
2022/11/29 05:04:46;;;;;;;120.90;25.17;;;;;;;;;;5042770;28;20055;-76
2022/11/29 05:07:12;;;;;;;450.75;34.20;;;;;;;;;;5045241;28;20063;-77
2022/11/29 05:09:48;;;;;;;364.77;31.83;;;;;;;;;;5048303;28;20037;-74
2022/11/29 05:12:18;;;;;;;421.70;33.30;;;;;;;;;;5047409;28;20503;-77
2022/11/29 05:14:56;;;;;;;442.85;32.60;;;;;;;;;;5047924;28;20049;-77
2022/11/29 05:17:38;;;;;;;407.05;34.38;;;;;;;;;;5044677;28;20225;-76
2022/11/29 05:20:11;;;;;;;383.47;31.67;;;;;;;;;;5046888;28;20045;-76
2022/11/29 05:22:41;;;;;;;500.75;36.67;;;;;;;;;;5047796;28;20052;-76
2022/11/29 05:25:25;;;;;;;246.60;28.33;;;;;;;;;;5046060;28;20060;-77
2022/11/29 05:27:56;;;;;;;456.05;36.80;;;;;;;;;;5029796;28;20040;-74
2022/11/29 05:30:23;;;;;;;479.52;35.72;;;;;;;;;;5033551;28;20080;-75
2022/11/29 05:33:14;;;;;;;328.15;29.02;;;;;;;;;;5032854;28;20515;-75
2022/11/29 05:35:48;;;;;;;303.73;29.63;;;;;;;;;;5047621;28;20063;-74
2022/11/29 05:38:33;;;;;;;551.97;38.40;;;;;;;;;;5046765;28;20115;-75
2022/11/29 05:41:08;;;;;;;502.42;37.45;;;;;;;;;;5052214;28;20491;-74
2022/11/29 05:43:47;;;;;;;508.23;36.05;;;;;;;;;;5045596;28;20056;-75
2022/11/29 05:46:23;;;;;;;472.27;35.45;;;;;;;;;;5048436;28;20052;-75
2022/11/29 05:48:58;;;;;;;562.45;39.10;;;;;;;;;;5047278;28;20044;-74
2022/11/29 05:51:33;;;;;;;373.23;32.25;;;;;;;;;;5039533;28;20139;-74
2022/11/29 05:54:18;;;;;;;337.55;30.65;;;;;;;;;;5046595;28;20060;-77
2022/11/29 05:56:49;;;;;;;327.77;30.98;;;;;;;;;;5030030;28;20045;-76
2022/11/29 05:59:24;;;;;;;562.35;38.53;;;;;;;;;;5043819;28;20044;-77
2022/11/29 06:01:55;;;;;;;447.17;36.75;;;;;;;;;;5045772;28;20048;-77
2022/11/29 06:04:31;;;;;;;458.65;35.50;;;;;;;;;;5032000;28;20062;-75
2022/11/29 06:07:03;;;;;;;343.92;30.92;;;;;;;;;;5047281;28;20493;-77
2022/11/29 06:09:48;;;;;;;428.60;32.55;;;;;;;;;;5032990;28;20044;-76
2022/11/29 06:12:21;;;;;;;274.95;27.77;;;;;;;;;;5049888;28;20064;-76
2022/11/29 06:14:59;;;;;;;446.17;34.08;;;;;;;;;;5042644;28;20045;-76
2022/11/29 06:17:25;;;;;;;394.13;31.52;;;;;;;;;;5043861;28;20045;-75
2022/11/29 06:20:09;;;;;;;222.98;25.40;;;;;;;;;;5047570;28;20064;-74
2022/11/29 06:22:54;;;;;;;354.27;29.33;;;;;;;;;;5042468;28;20084;-74
2022/11/29 06:25:43;;;;;;;196.57;25.17;;;;;;;;;;5048718;28;20051;-75
2022/11/29 06:28:31;;;;;;;419.17;31.23;;;;;;;;;;5042560;28;20040;-77
2022/11/29 06:31:04;;;;;;;286.33;27.45;;;;;;;;;;5048241;28;20048;-74
2022/11/29 06:33:35;;;;;;;334.65;29.98;;;;;;;;;;5043327;28;20033;-74
2022/11/29 06:36:11;;;;;;;337.52;28.02;;;;;;;;;;5042628;28;20037;-76
2022/11/29 06:38:37;;;;;;;349.20;30.25;;;;;;;;;;5045077;28;20487;-77
2022/11/29 06:41:03;;;;;;;382.02;30.30;;;;;;;;;;5029660;28;20045;-75
2022/11/29 06:43:29;;;;;;;358.80;26.67;;;;;;;;;;5038386;28;20175;-76
2022/11/29 06:46:09;;;;;;;471.02;31.55;;;;;;;;;;5045168;28;20048;-75
2022/11/29 06:48:42;;;;;;;348.13;29.50;;;;;;;;;;5042703;28;20094;-74
2022/11/29 06:51:24;;;;;;;294.63;26.88;;;;;;;;;;5028122;28;20040;-76
2022/11/29 06:53:59;;;;;;;316.60;28.08;;;;;;;;;;5047620;28;20049;-75
2022/11/29 06:56:31;;;;;;;210.82;24.17;;;;;;;;;;5047716;28;20063;-74
2022/11/29 06:59:16;;;;;;;344.23;28.65;;;;;;;;;;5046393;28;20051;-76
2022/11/29 07:01:53;;;;;;;120.13;22.08;;;;;;;;;;5033280;28;20437;-77
2022/11/29 07:04:40;;;;;;;319.40;26.95;;;;;;;;;;5042940;28;20049;-75
2022/11/29 07:07:24;;;;;;;463.10;33.10;;;;;;;;;;5043906;28;20087;-77
2022/11/29 07:09:52;;;;;;;355.15;28.58;;;;;;;;;;5046071;28;20063;-75
2022/11/29 07:12:18;;;;;;;350.27;27.10;;;;;;;;;;5046270;28;20049;-77
2022/11/29 07:14:44;;;;;;;310.00;28.38;;;;;;;;;;5038470;28;20152;-74
2022/11/29 07:17:26;;;;;;;396.45;31.08;;;;;;;;;;5039259;28;20044;-77
2022/11/29 07:19:51;;;;;;;454.75;33.10;;;;;;;;;;5024276;28;20450;-73
2022/11/29 07:22:36;;;;;;;382.75;30.67;;;;;;;;;;5046824;28;20041;-76
2022/11/29 07:25:21;;;;;;;242.20;25.63;;;;;;;;;;5041976;28;20033;-76
2022/11/29 07:27:52;;;;;;;254.38;26.63;;;;;;;;;;5044349;28;20049;-77
2022/11/29 07:30:20;;;;;;;373.77;31.98;;;;;;;;;;5047138;28;20049;-75
2022/11/29 07:33:05;;;;;;;224.98;26.73;;;;;;;;;;5046510;28;20072;-76
2022/11/29 07:35:37;;;;;;;415.77;32.33;;;;;;;;;;5044786;28;20139;-77
2022/11/29 07:38:24;;;;;;;503.98;35.55;;;;;;;;;;5025735;28;20060;-76
2022/11/29 07:41:02;;;;;;;333.38;30.92;;;;;;;;;;5040722;28;20044;-76
2022/11/29 07:43:34;;;;;;;417.98;34.55;;;;;;;;;;5045952;28;20491;-76
2022/11/29 07:46:00;;;;;;;315.95;30.63;;;;;;;;;;5043191;28;20116;-78
2022/11/29 07:48:26;;;;;;;243.43;27.75;;;;;;;;;;5041436;28;20079;-75
2022/11/29 07:50:53;;;;;;;192.50;26.95;;;;;;;;;;5043974;28;20140;-77
2022/11/29 07:53:20;;;;;;;220.75;28.02;;;;;;;;;;5041144;28;20073;-74
2022/11/29 07:55:47;;;;;;;334.90;32.25;;;;;;;;;;5046159;28;20408;-75
2022/11/29 07:58:13;;;;;;;208.18;26.52;;;;;;;;;;5040338;28;20040;-76
2022/11/29 08:00:41;;;;;;;276.70;30.75;;;;;;;;;;5022538;28;20033;-76
2022/11/29 08:03:07;;;;;;;198.68;26.52;;;;;;;;;;5039975;28;20053;-75
2022/11/29 08:05:33;;;;;;;231.50;29.40;;;;;;;;;;5040161;28;20488;-76
2022/11/29 08:07:59;;;;;;;137.05;26.17;;;;;;;;;;5026602;28;20041;-76
2022/11/29 08:10:25;;;;;;;236.90;29.50;;;;;;;;;;5044696;28;20239;-77
2022/11/29 08:12:51;;;;;;;195.85;27.98;;;;;;;;;;5041406;28;20072;-75
2022/11/29 08:15:20;;;;;;;375.45;34.28;;;;;;;;;;5029057;28;20053;-76
2022/11/29 08:17:47;;;;;;;292.65;32.08;;;;;;;;;;5040023;28;20525;-76
2022/11/29 08:20:13;;;;;;;175.13;28.67;;;;;;;;;;5042787;28;20053;-76
2022/11/29 08:22:39;;;;;;;197.82;28.40;;;;;;;;;;5039213;28;20493;-76
2022/11/29 08:25:06;;;;;;;127.60;24.92;;;;;;;;;;5030321;28;20040;-77
2022/11/29 08:27:33;;;;;;;142.50;25.60;;;;;;;;;;5048703;28;20072;-77
2022/11/29 08:29:59;;;;;;;116.45;23.98;;;;;;;;;;5044299;28;20040;-75
2022/11/29 08:32:26;;;;;;;119.15;24.58;;;;;;;;;;5055803;28;20048;-74
2022/11/29 08:34:52;;;;;;;118.88;25.05;;;;;;;;;;5049684;28;20410;-75
2022/11/29 08:37:18;;;;;;;243.65;31.25;;;;;;;;;;5046218;28;20060;-76
2022/11/29 08:39:44;;;;;;;308.50;32.42;;;;;;;;;;5047973;28;20060;-76
2022/11/29 08:42:10;;;;;;;243.70;29.42;;;;;;;;;;5046043;28;20052;-75
2022/11/29 08:44:36;;;;;;;245.93;32.40;;;;;;;;;;5028203;28;20056;-76
2022/11/29 08:50:02;;;;;;;123.38;25.33;;;;;;;;;;5045825;28;20445;-76
2022/11/29 08:55:13;;;;;;;105.68;23.70;;;;;;;;;;5044174;28;20068;-76
2022/11/29 08:57:39;;;;;;;136.02;26.33;;;;;;;;;;5044675;28;20041;-74
2022/11/29 09:00:06;;;;;;;195.32;29.50;;;;;;;;;;5044617;28;20068;-76
2022/11/29 09:02:32;;;;;;;211.23;30.25;;;;;;;;;;5041523;28;20093;-76
2022/11/29 09:04:58;;;;;;;158.20;28.08;;;;;;;;;;5039721;28;20052;-76
2022/11/29 09:07:24;;;;;;;184.30;28.63;;;;;;;;;;5041769;28;20044;-74
2022/11/29 09:09:50;;;;;;;151.82;28.60;;;;;;;;;;5026735;28;20041;-74
2022/11/29 09:12:16;;;;;;;170.65;28.70;;;;;;;;;;5040448;28;20053;-74
2022/11/29 09:14:42;;;;;;;239.77;31.00;;;;;;;;;;5041385;28;20500;-75
2022/11/29 09:17:08;;;;;;;181.75;29.17;;;;;;;;;;5039292;28;20052;-75
2022/11/29 09:19:34;;;;;;;137.15;27.90;;;;;;;;;;5041817;28;20049;-76
2022/11/29 09:22:00;;;;;;;153.50;28.63;;;;;;;;;;5038820;28;20487;-74
2022/11/29 09:24:26;;;;;;;140.00;28.90;;;;;;;;;;5041542;28;20055;-74
2022/11/29 09:26:52;;;;;;;129.85;28.08;;;;;;;;;;5039651;28;20047;-76
2022/11/29 09:29:18;;;;;;;113.35;27.83;;;;;;;;;;5038501;28;20120;-76
2022/11/29 09:31:44;;;;;;;98.20;24.88;;;;;;;;;;5039656;28;20101;-75
2022/11/29 09:34:14;;;;;;;98.63;25.70;;;;;;;;;;5041935;28;20072;-75
2022/11/29 09:36:42;;;;;;;98.65;25.35;;;;;;;;;;5025186;28;20056;-75
2022/11/29 09:39:09;;;;;;;118.07;26.25;;;;;;;;;;5042039;28;20053;-74
2022/11/29 09:41:35;;;;;;;92.40;25.52;;;;;;;;;;5037428;28;20415;-77
2022/11/29 09:44:10;;;;;;;98.22;26.05;;;;;;;;;;5039934;28;20045;-75
2022/11/29 09:46:42;;;;;;;94.57;24.65;;;;;;;;;;5041998;28;20045;-76
2022/11/29 09:49:27;;;;;;;85.72;23.98;;;;;;;;;;5024951;28;20132;-74
2022/11/29 09:52:01;;;;;;;76.40;22.75;;;;;;;;;;5024646;28;20043;-74
2022/11/29 09:54:48;;;;;;;86.75;24.80;;;;;;;;;;5044134;28;20501;-74
2022/11/29 09:57:16;;;;;;;86.13;24.55;;;;;;;;;;5040327;28;20050;-77
2022/11/29 09:59:48;;;;;;;98.38;27.20;;;;;;;;;;5040914;28;20504;-75
2022/11/29 10:02:16;;;;;;;109.32;28.80;;;;;;;;;;5038211;28;20042;-76
2022/11/29 10:04:44;;;;;;;121.82;30.08;;;;;;;;;;5041366;28;20056;-73
2022/11/29 10:07:34;;;;;;;115.80;30.45;;;;;;;;;;5043697;28;20049;-74
2022/11/29 10:10:07;;;;;;;136.73;32.05;;;;;;;;;;5041206;28;20052;-74
2022/11/29 10:12:51;;;;;;;146.63;33.92;;;;;;;;;;5041812;28;20082;-75
2022/11/29 10:15:21;;;;;;;145.10;34.65;;;;;;;;;;5046566;28;20086;-74
2022/11/29 10:17:50;;;;;;;124.03;31.83;;;;;;;;;;5046863;28;20044;-75
2022/11/29 10:20:17;;;;;;;97.30;27.25;;;;;;;;;;5046995;28;20052;-75
2022/11/29 10:22:48;;;;;;;89.13;26.15;;;;;;;;;;5042142;28;20083;-75
2022/11/29 10:25:40;;;;;;;97.13;26.10;;;;;;;;;;5043826;28;20047;-77
2022/11/29 10:28:10;;;;;;;74.05;22.52;;;;;;;;;;5041835;28;20052;-75
2022/11/29 10:30:36;;;;;;;65.20;20.52;;;;;;;;;;5040702;28;20127;-74
2022/11/29 10:33:03;;;;;;;56.40;18.65;;;;;;;;;;5047322;28;20047;-74
2022/11/29 10:35:29;;;;;;;65.43;20.17;;;;;;;;;;5031781;28;21913;-74
2022/11/29 10:37:57;;;;;;;63.72;20.85;;;;;;;;;;5048190;28;20056;-75
2022/11/29 10:40:30;;;;;;;53.70;18.40;;;;;;;;;;5043482;28;20095;-76
2022/11/29 10:42:58;;;;;;;50.85;18.40;;;;;;;;;;5024655;28;20051;-75
2022/11/29 10:45:36;;;;;;;53.75;18.17;;;;;;;;;;5042655;28;20041;-76
2022/11/29 10:48:14;;;;;;;51.70;17.30;;;;;;;;;;5045028;28;20154;-75
2022/11/29 10:50:42;;;;;;;38.80;16.35;;;;;;;;;;5043646;28;20077;-75
2022/11/29 10:53:10;;;;;;;44.88;15.25;;;;;;;;;;5031541;28;20041;-76
2022/11/29 10:55:41;;;;;;;36.05;14.57;;;;;;;;;;5041738;28;20049;-76
2022/11/29 10:58:15;;;;;;;44.75;15.15;;;;;;;;;;5044921;28;20044;-76
2022/11/29 11:00:45;;;;;;;39.10;15.35;;;;;;;;;;5042220;28;20049;-76
2022/11/29 11:03:16;;;;;;;35.75;14.40;;;;;;;;;;5026384;28;20063;-74
2022/11/29 11:05:42;;;;;;;40.30;13.90;;;;;;;;;;5029384;28;20064;-76
2022/11/29 11:08:16;;;;;;;39.17;14.25;;;;;;;;;;5041859;28;20154;-76
2022/11/29 11:10:42;;;;;;;35.63;14.30;;;;;;;;;;5045223;28;20399;-76
2022/11/29 11:13:22;;;;;;;37.20;13.68;;;;;;;;;;5041220;28;20045;-76
2022/11/29 11:15:48;;;;;;;32.13;12.70;;;;;;;;;;5037068;28;20052;-74
2022/11/29 11:18:22;;;;;;;32.75;13.52;;;;;;;;;;5041317;28;20053;-77
2022/11/29 11:21:00;;;;;;;31.50;13.30;;;;;;;;;;5044835;28;20041;-73
2022/11/29 11:23:29;;;;;;;35.30;12.63;;;;;;;;;;5051479;28;20132;-74
2022/11/29 11:25:58;;;;;;;32.90;13.27;;;;;;;;;;5049555;28;20048;-74
2022/11/29 11:28:38;;;;;;;32.33;12.40;;;;;;;;;;5041128;28;20048;-75
2022/11/29 11:31:07;;;;;;;28.02;11.88;;;;;;;;;;5040681;28;20055;-74
2022/11/29 11:33:36;;;;;;;32.90;12.30;;;;;;;;;;5042126;28;20083;-76
2022/11/29 11:36:21;;;;;;;30.10;12.23;;;;;;;;;;5044823;28;20041;-74
2022/11/29 11:38:47;;;;;;;27.30;12.40;;;;;;;;;;5044842;28;20075;-76
2022/11/29 11:41:16;;;;;;;31.80;12.73;;;;;;;;;;5044605;28;20051;-74
2022/11/29 11:43:49;;;;;;;27.38;11.75;;;;;;;;;;5046733;28;20395;-74
2022/11/29 11:46:15;;;;;;;29.95;12.23;;;;;;;;;;5047589;28;20041;-74
2022/11/29 11:48:41;;;;;;;35.45;12.38;;;;;;;;;;5047174;28;20095;-73
2022/11/29 11:51:18;;;;;;;28.95;12.70;;;;;;;;;;5045454;28;20040;-74
2022/11/29 11:53:48;;;;;;;28.40;11.38;;;;;;;;;;5024303;28;20037;-75
2022/11/29 11:56:15;;;;;;;31.10;11.75;;;;;;;;;;5043628;28;20044;-74
2022/11/29 11:58:50;;;;;;;29.83;11.85;;;;;;;;;;5046574;28;20110;-73
2022/11/29 12:01:24;;;;;;;23.85;11.45;;;;;;;;;;5025520;28;20053;-73
2022/11/29 12:04:00;;;;;;;29.52;11.85;;;;;;;;;;5051363;28;20106;-73
2022/11/29 12:06:45;;;;;;;28.98;11.00;;;;;;;;;;5049433;28;20559;-75
2022/11/29 12:09:19;;;;;;;25.20;11.10;;;;;;;;;;5035541;28;20047;-74
2022/11/29 12:11:45;;;;;;;28.58;11.75;;;;;;;;;;5046477;28;20046;-74
2022/11/29 12:14:18;;;;;;;28.38;10.93;;;;;;;;;;5047541;28;20060;-74
2022/11/29 12:16:44;;;;;;;;;;;;;;;;;;5050136;28;20147;-75
2022/11/29 12:19:22;;;;;;;32.10;10.57;;;;;;;;;;5032761;28;20039;-74
2022/11/29 12:21:51;;;;;;;30.63;11.50;;;;;;;;;;5032615;28;20098;-76
2022/11/29 12:24:17;;;;;;;27.85;10.52;;;;;;;;;;5051050;28;20044;-76
2022/11/29 12:26:43;;;;;;;25.35;10.85;;;;;;;;;;5044337;28;20041;-76
2022/11/29 12:29:12;;;;;;;25.42;10.90;;;;;;;;;;5046361;28;20037;-76
2022/11/29 12:31:38;;;;;;;31.33;11.82;;;;;;;;;;5048832;28;20041;-75
2022/11/29 12:34:22;;;;;;;28.05;10.32;;;;;;;;;;5050493;28;20098;-76
2022/11/29 12:37:12;;;;;;;33.95;14.77;;;;;;;;;;5047346;28;20044;-77
2022/11/29 12:39:49;;;;;;;37.92;11.85;;;;;;;;;;5034965;28;20048;-77
2022/11/29 12:42:35;;;;;;;21.70;11.45;;;;;;;;;;5030526;28;20571;-75
2022/11/29 12:45:34;;;;;;;30.48;11.75;;;;;;;;;;5046239;28;20037;-77
2022/11/29 12:48:13;;;;;;;31.42;11.35;;;;;;;;;;5011459;28;20538;-76
2022/11/29 12:50:58;;;;;;;29.83;11.88;;;;;;;;;;5046107;28;20502;-76
2022/11/29 12:53:42;;;;;;;34.03;11.50;;;;;;;;;;5044389;28;20045;-76
2022/11/29 12:56:18;;;;;;;33.42;11.55;;;;;;;;;;5048289;28;20052;-75
2022/11/29 12:58:56;;;;;;;28.67;11.68;;;;;;;;;;5046567;28;20041;-76
2022/11/29 13:01:29;;;;;;;32.03;12.23;;;;;;;;;;5046119;28;20061;-75
2022/11/29 13:03:55;;;;;;;30.02;11.60;;;;;;;;;;5044363;28;20052;-77
2022/11/29 13:06:24;;;;;;;33.33;11.98;;;;;;;;;;5044464;28;20507;-75
2022/11/29 13:09:22;;;;;;;35.17;11.30;;;;;;;;;;5047566;28;20479;-77
2022/11/29 13:12:01;;;;;;;33.95;12.35;;;;;;;;;;5014653;28;20543;-76
2022/11/29 13:14:48;;;;;;;33.75;11.93;;;;;;;;;;5042486;28;20561;-75
2022/11/29 13:17:33;;;;;;;32.95;12.07;;;;;;;;;;5039324;28;20045;-76
2022/11/29 13:20:18;;;;;;;35.17;12.68;;;;;;;;;;5047398;28;20144;-76
2022/11/29 13:22:55;;;;;;;34.95;12.82;;;;;;;;;;5046310;28;20041;-76
2022/11/29 13:25:24;;;;;;;30.40;12.00;;;;;;;;;;5029571;28;20041;-75
2022/11/29 13:28:10;;;;;;;33.22;11.60;;;;;;;;;;5047916;28;20043;-75
2022/11/29 13:30:38;;;;;;;28.92;11.70;;;;;;;;;;5013425;28;20384;-77
2022/11/29 13:33:10;;;;;;;31.90;11.73;;;;;;;;;;5043523;28;20131;-77
2022/11/29 13:35:55;;;;;;;35.33;13.30;;;;;;;;;;5041595;28;20049;-77
2022/11/29 13:38:31;;;;;;;29.63;12.80;;;;;;;;;;5043330;28;20048;-76
2022/11/29 13:40:59;;;;;;;30.02;12.35;;;;;;;;;;5049376;28;20403;-77
2022/11/29 13:43:38;;;;;;;30.58;11.60;;;;;;;;;;5029833;28;20041;-76
2022/11/29 13:46:15;;;;;;;29.83;11.40;;;;;;;;;;5045480;28;20110;-76
2022/11/29 13:48:48;;;;;;;33.55;11.77;;;;;;;;;;5047513;28;20052;-77
2022/11/29 13:51:20;;;;;;;34.30;12.35;;;;;;;;;;5044278;28;20045;-76
2022/11/29 13:53:46;;;;;;;30.67;11.55;;;;;;;;;;5042866;28;20047;-74
2022/11/29 13:56:32;;;;;;;28.67;11.63;;;;;;;;;;5045846;28;20048;-76
2022/11/29 13:58:59;;;;;;;29.63;12.13;;;;;;;;;;5041485;28;20448;-76
2022/11/29 14:01:26;;;;;;;33.53;12.98;;;;;;;;;;5047389;28;20110;-76
2022/11/29 14:04:01;;;;;;;29.83;11.80;;;;;;;;;;5030593;28;21167;-75
2022/11/29 14:06:33;;;;;;;28.55;12.05;;;;;;;;;;5045843;28;20068;-76
2022/11/29 14:09:14;;;;;;;29.52;12.63;;;;;;;;;;5046774;28;20501;-76
2022/11/29 14:11:48;;;;;;;30.50;12.40;;;;;;;;;;5029237;28;20071;-76
2022/11/29 14:14:52;;;;;;;30.65;13.45;;;;;;;;;;5042482;28;20056;-76
2022/11/29 14:17:38;;;;;;;34.42;12.05;;;;;;;;;;4988825;28;20045;-76
2022/11/29 14:20:31;;;;;;;30.52;12.10;;;;;;;;;;4997660;28;20567;-76
2022/11/29 14:23:03;;;;;;;28.67;12.43;;;;;;;;;;5032445;28;20051;-76
2022/11/29 14:25:30;;;;;;;30.50;12.05;;;;;;;;;;5027752;28;20088;-75
2022/11/29 14:27:57;;;;;;;29.67;12.15;;;;;;;;;;5043692;28;20052;-75
2022/11/29 14:30:30;;;;;;;30.05;11.63;;;;;;;;;;5028703;28;20041;-75
2022/11/29 14:33:19;;;;;;;29.13;11.93;;;;;;;;;;5043915;28;20044;-76
2022/11/29 14:35:55;;;;;;;30.15;12.32;;;;;;;;;;5040444;28;20037;-76
2022/11/29 14:38:30;;;;;;;28.35;12.02;;;;;;;;;;5042231;28;20053;-75
2022/11/29 14:41:01;;;;;;;52.70;28.40;;;;;;;;;;5043242;28;20532;-76
2022/11/29 14:43:34;;;;;;;44.95;20.85;;;;;;;;;;5044546;28;20879;-74
2022/11/29 14:46:16;;;;;;;35.13;13.00;;;;;;;;;;5029719;28;20041;-74